This is the latest recevied weather packets stored in our database for station/object SV2BZQ-2. If no packets are shown the sender has not sent any weather packets the latest 1 day(s).
| Time | Temp. | Humidity | Pressure | Rain* | Wind** | Luminosity | Snow |
|---|---|---|---|---|---|---|---|
| 1778040685 | 11.11° C | 87% | 1014 hPa | 0 mm | 0.89 m/s, 322° | 44 W/m² | - |
| 1778040601 | 11.11° C | 87% | 1013.9 hPa | 0 mm | 0.89 m/s, 317° | 42 W/m² | - |
| 1778040518 | 11.11° C | 87% | 1014 hPa | 0 mm | 0.89 m/s, 323° | 39 W/m² | - |
| 1778040438 | 11.11° C | 87% | 1013.9 hPa | 0 mm | 0.89 m/s, 307° | 51 W/m² | - |
| 1778040350 | 11.11° C | 88% | 1013.9 hPa | 0 mm | 0.89 m/s, 307° | 49 W/m² | - |
| 1778040273 | 11.11° C | 88% | 1013.9 hPa | 0 mm | 0.45 m/s, 277° | 58 W/m² | - |
| 1778040170 | 11.11° C | 87% | 1013.9 hPa | 0 mm | 0.45 m/s, 298° | 37 W/m² | - |
| 1778040087 | 11.11° C | 87% | 1013.9 hPa | 0 mm | 0.45 m/s, 286° | 39 W/m² | - |
| 1778040002 | 11.11° C | 87% | 1013.8 hPa | 0 mm | 0.45 m/s, 277° | 39 W/m² | - |
| 1778039911 | 11.11° C | 87% | 1013.8 hPa | 0 mm | 0 m/s | 42 W/m² | - |
| 1778039789 | 11.11° C | 87% | 1013.7 hPa | 0 mm | 0 m/s | 35 W/m² | - |
| 1778039694 | 11.11° C | 87% | 1013.7 hPa | 0 mm | 0 m/s | 26 W/m² | - |
| 1778039598 | 11.11° C | 87% | 1013.6 hPa | 0 mm | 0.45 m/s, 300° | 26 W/m² | - |
| 1778039447 | 11.11° C | 87% | 1013.7 hPa | 0 mm | 0.45 m/s, 300° | 25 W/m² | - |
| 1778039341 | 11.11° C | 87% | 1013.7 hPa | 0 mm | 0.45 m/s, 292° | 21 W/m² | - |
| 1778039226 | 11.11° C | 87% | 1013.7 hPa | 0 mm | 0.45 m/s, 304° | 14 W/m² | - |
| 1778039145 | 11.11° C | 87% | 1013.7 hPa | 0 mm | 0.45 m/s, 314° | 12 W/m² | - |
| 1778038910 | 11.67° C | 87% | 1013.8 hPa | 0 mm | 0.45 m/s, 314° | 11 W/m² | - |
| 1778038832 | 11.67° C | 87% | 1013.7 hPa | 0 mm | 0.45 m/s, 293° | 9 W/m² | - |
| 1778038765 | 11.67° C | 87% | 1013.7 hPa | 0 mm | 0.45 m/s, 316° | 7 W/m² | - |
| 1778038665 | 11.67° C | 87% | 1013.7 hPa | 0 mm | 0.45 m/s, 281° | 7 W/m² | - |
| 1778038560 | 11.67° C | 87% | 1013.7 hPa | 0 mm | 0.45 m/s, 286° | 5 W/m² | - |
| 1778038475 | 11.67° C | 87% | 1013.7 hPa | 0 mm | 0 m/s | 5 W/m² | - |
| 1778038380 | 11.67° C | 87% | 1013.6 hPa | 0 mm | 0 m/s | 5 W/m² | - |
| 1778038265 | 11.67° C | 87% | 1013.6 hPa | 0 mm | 0 m/s | 0 W/m² | - |
* Rain latest hour (hover to see other rain measurements)
** Current wind speed in m/s (hover to see current wind gust speed)